Flight Track Log - Related Links

Times and Time Zones

All times are in EDT time to prevent confusion due to time zone crossing. See the N749SS flight status page for this flight to view local times or setup timezone preferences in your user account.

Time Position Orientation Groundspeed Altitude Reporting Facility
EDT Latitude Longitude Course Direction KTS MPH feet Rate Location/Type
Fri 03:33:00 PM 33.6333 -117.9000 294° West 197 227 2,700  Level Southern California TRACON
Fri 03:34:00 PM 33.5667 -117.9000 180° South 255 293 5,000 1,150 Climbing Southern California TRACON
Fri 03:35:00 PM 33.5000 -117.9667 220° Southwest 283 326 5,000 1,000 Level Southern California TRACON
Fri 03:36:00 PM 33.4333 -118.0167 212° Southwest 268 308 7,000 2,300 Climbing Southern California TRACON
Fri 03:37:00 PM 33.3667 -118.0667 212° Southwest 304 350 9,600 1,500 Climbing Southern California TRACON
Fri 03:38:00 PM 33.8819 -118.3988 294° West  Level Estimated
Fri 03:38:00 PM 33.3333 -118.1500 244° Southwest 348 400 10,000  Level Southern California TRACON
Fri 03:39:00 PM 33.3500 -118.2833 279° West 393 452 10,000  Level Southern California TRACON
Fri 03:39:42 PM 33.3611 -118.3239 288° West 384 442 10,000  Level Los Angeles Center
Fri 03:40:44 PM 33.4175 -118.4569 297° West 398 458 10,000  Level Los Angeles Center
Fri 03:41:46 PM 33.5058 -118.5392 322° Northwest 399 459 10,000  Level Los Angeles Center
Fri 03:42:49 PM 33.5383 -118.6642 287° West 392 451 10,000  Level Los Angeles Center
Fri 03:43:51 PM 33.5681 -118.7881 286° West 387 445 10,000 323 Level Los Angeles Center
Fri 03:49:01 PM 33.8428 -119.3647 300° West 397 457 12,000 323 Climbing Los Angeles Center
Fri 03:50:03 PM 33.9308 -119.4497 321° Northwest 407 468 12,000  Level Los Angeles Center
Fri 03:51:06 PM 34.0436 -119.5350 328° Northwest 399 459 12,000 67 Level Los Angeles Center
Fri 03:51:32 PM 34.0881 -119.5678 329° Northwest 394 453 12,100 -136 Climbing Los Angeles Center
Fri 03:51:50 PM 34.1067 -119.5825 327° Northwest 371 427 11,900 -1,000 Descending Los Angeles Center
Fri 03:52:20 PM 34.1294 -119.6031 323° Northwest 380 437 11,300 -2,066 Descending Los Angeles Center
Fri 03:52:51 PM 34.1850 -119.6428 329° Northwest 320 368 9,800 -2,903 Descending Los Angeles Center
Fri 03:53:22 PM 34.2153 -119.6644 329° Northwest 323 372 8,300 -2,100 Descending Los Angeles Center
Fri 03:53:51 PM 34.2525 -119.6833 337° Northwest 281 323 7,700 -1,452 Descending Los Angeles Center
Fri 03:54:24 PM 34.2794 -119.7022 330° Northwest 283 326 6,800 -1,967 Descending Los Angeles Center
Fri 03:54:52 PM 34.3122 -119.7083 351° North 222 255 5,700 -1,645 Descending Los Angeles Center
Fri 03:55:26 PM 34.3378 -119.7128 352° North 241 277 5,100 -1,800 Descending Los Angeles Center
Fri 03:55:52 PM 34.3703 -119.7075 North 193 222 3,900 -1,839 Descending Los Angeles Center
Fri 03:56:28 PM 34.3906 -119.7114 351° North 221 254 3,200 -1,279 Descending Los Angeles Center
Fri 03:56:53 PM 34.4111 -119.7256 330° Northwest 161 185 2,600 -1,395 Descending Los Angeles Center
Fri 03:57:54 PM 34.4281 -119.7722 294° West 156 180 1,200 -1,091 Descending Los Angeles Center
Fri 03:58:54 PM 34.4281 -119.8217 270° West 152 175 400 -800 Descending Los Angeles Center

Login

Don't have an account? Register now (free) for customized features, flight alerts, and more!